Terminal Aerodrome Forecast
Issued by NWS Spokane, WA

Home | Current Version | Previous Version | Text Only | Print | Product List | Glossary On
Versions: 1 2 3 4 5 6 7 8 9 10 11 12 13 14 15 16 17 18 19 20 21 22 23
000
FTUS46 KOTX 232330
TAFGEG
TAF
KGEG 232330Z 2400/2424 30004KT P6SM OVC015
     FM240200 27005KT P6SM OVC007
     FM240800 23004KT 1SM BR OVC003
     FM241200 26004KT 4SM BR OVC003
     FM242000 27004KT P6SM OVC007=

USA.gov is the U.S. government's official web portal to all federal, state and local government web resources and services.